sensor_id;sensor_type;location;lat;lon;timestamp;P1;durP1;ratioP1;P2;durP2;ratioP2
68757;SDS011;55747;51.998;4.466;2023-02-18T00:01:22;68.45;;;21.13;;
68757;SDS011;55747;51.998;4.466;2023-02-18T00:03:48;71.05;;;22.20;;
68757;SDS011;55747;51.998;4.466;2023-02-18T00:06:19;72.07;;;22.17;;
68757;SDS011;55747;51.998;4.466;2023-02-18T00:08:46;69.57;;;21.13;;
68757;SDS011;55747;51.998;4.466;2023-02-18T00:11:13;67.30;;;21.13;;
68757;SDS011;55747;51.998;4.466;2023-02-18T00:13:41;63.38;;;20.50;;
68757;SDS011;55747;51.998;4.466;2023-02-18T00:16:08;66.07;;;21.02;;
68757;SDS011;55747;51.998;4.466;2023-02-18T00:18:35;65.85;;;20.83;;
68757;SDS011;55747;51.998;4.466;2023-02-18T00:21:02;78.45;;;21.40;;
68757;SDS011;55747;51.998;4.466;2023-02-18T00:23:32;73.53;;;21.27;;
68757;SDS011;55747;51.998;4.466;2023-02-18T00:26:02;73.38;;;20.92;;
68757;SDS011;55747;51.998;4.466;2023-02-18T00:28:29;74.03;;;21.15;;
68757;SDS011;55747;51.998;4.466;2023-02-18T00:30:55;75.97;;;20.70;;
68757;SDS011;55747;51.998;4.466;2023-02-18T00:33:20;68.10;;;19.67;;
68757;SDS011;55747;51.998;4.466;2023-02-18T00:35:46;62.05;;;20.02;;
68757;SDS011;55747;51.998;4.466;2023-02-18T00:38:11;67.32;;;19.52;;
68757;SDS011;55747;51.998;4.466;2023-02-18T00:40:37;63.60;;;18.70;;
68757;SDS011;55747;51.998;4.466;2023-02-18T00:43:03;74.50;;;20.08;;
68757;SDS011;55747;51.998;4.466;2023-02-18T00:45:29;78.45;;;20.20;;
68757;SDS011;55747;51.998;4.466;2023-02-18T00:47:54;71.50;;;19.95;;
68757;SDS011;55747;51.998;4.466;2023-02-18T00:50:19;68.65;;;19.98;;
68757;SDS011;55747;51.998;4.466;2023-02-18T00:52:45;70.20;;;18.42;;
68757;SDS011;55747;51.998;4.466;2023-02-18T00:55:10;66.53;;;19.30;;
68757;SDS011;55747;51.998;4.466;2023-02-18T00:57:35;75.90;;;19.33;;
68757;SDS011;55747;51.998;4.466;2023-02-18T01:00:03;78.35;;;19.70;;
68757;SDS011;55747;51.998;4.466;2023-02-18T01:02:30;70.90;;;19.27;;
68757;SDS011;55747;51.998;4.466;2023-02-18T01:04:55;61.55;;;17.73;;
68757;SDS011;55747;51.998;4.466;2023-02-18T01:07:20;69.97;;;18.83;;
68757;SDS011;55747;51.998;4.466;2023-02-18T01:09:46;67.40;;;19.13;;
68757;SDS011;55747;51.998;4.466;2023-02-18T01:12:11;70.68;;;18.83;;
68757;SDS011;55747;51.998;4.466;2023-02-18T01:14:36;73.88;;;18.17;;
68757;SDS011;55747;51.998;4.466;2023-02-18T01:17:02;64.90;;;18.10;;
68757;SDS011;55747;51.998;4.466;2023-02-18T01:19:27;70.68;;;18.50;;
68757;SDS011;55747;51.998;4.466;2023-02-18T01:21:52;69.95;;;18.10;;
68757;SDS011;55747;51.998;4.466;2023-02-18T01:24:18;78.32;;;19.02;;
68757;SDS011;55747;51.998;4.466;2023-02-18T01:26:43;81.10;;;19.67;;
68757;SDS011;55747;51.998;4.466;2023-02-18T01:29:09;78.53;;;18.90;;
68757;SDS011;55747;51.998;4.466;2023-02-18T01:31:34;73.80;;;19.10;;
68757;SDS011;55747;51.998;4.466;2023-02-18T01:33:59;79.63;;;19.70;;
68757;SDS011;55747;51.998;4.466;2023-02-18T01:36:25;78.05;;;19.33;;
68757;SDS011;55747;51.998;4.466;2023-02-18T01:38:50;78.38;;;19.60;;
68757;SDS011;55747;51.998;4.466;2023-02-18T01:41:17;76.95;;;18.98;;
68757;SDS011;55747;51.998;4.466;2023-02-18T01:43:42;81.03;;;20.48;;
68757;SDS011;55747;51.998;4.466;2023-02-18T01:46:12;83.75;;;19.67;;
68757;SDS011;55747;51.998;4.466;2023-02-18T01:48:39;76.88;;;19.40;;
68757;SDS011;55747;51.998;4.466;2023-02-18T01:56:27;90.20;;;21.42;;
68757;SDS011;55747;51.998;4.466;2023-02-18T01:58:58;85.00;;;20.83;;
68757;SDS011;55747;51.998;4.466;2023-02-18T02:01:27;85.65;;;21.25;;
68757;SDS011;55747;51.998;4.466;2023-02-18T02:03:53;84.30;;;21.40;;
68757;SDS011;55747;51.998;4.466;2023-02-18T02:06:20;92.20;;;20.75;;
68757;SDS011;55747;51.998;4.466;2023-02-18T02:08:47;101.43;;;22.83;;
68757;SDS011;55747;51.998;4.466;2023-02-18T02:11:17;94.68;;;21.45;;
68757;SDS011;55747;51.998;4.466;2023-02-18T02:19:15;87.63;;;22.42;;
68757;SDS011;55747;51.998;4.466;2023-02-18T02:35:10;99.50;;;21.25;;
68757;SDS011;55747;51.998;4.466;2023-02-18T02:37:56;92.63;;;20.90;;
68757;SDS011;55747;51.998;4.466;2023-02-18T02:43:10;74.90;;;18.10;;
68757;SDS011;55747;51.998;4.466;2023-02-18T02:45:45;59.55;;;15.20;;
68757;SDS011;55747;51.998;4.466;2023-02-18T02:51:02;59.95;;;14.23;;
68757;SDS011;55747;51.998;4.466;2023-02-18T02:53:34;53.33;;;14.57;;
68757;SDS011;55747;51.998;4.466;2023-02-18T02:56:00;54.17;;;14.43;;
68757;SDS011;55747;51.998;4.466;2023-02-18T02:58:26;44.63;;;13.73;;
68757;SDS011;55747;51.998;4.466;2023-02-18T03:03:32;41.42;;;12.52;;
68757;SDS011;55747;51.998;4.466;2023-02-18T03:08:57;46.85;;;13.15;;
68757;SDS011;55747;51.998;4.466;2023-02-18T03:11:46;51.50;;;15.95;;
68757;SDS011;55747;51.998;4.466;2023-02-18T03:14:45;51.60;;;17.20;;
68757;SDS011;55747;51.998;4.466;2023-02-18T03:17:37;55.60;;;17.23;;
68757;SDS011;55747;51.998;4.466;2023-02-18T03:20:27;52.67;;;16.98;;
68757;SDS011;55747;51.998;4.466;2023-02-18T03:23:05;43.95;;;13.85;;
68757;SDS011;55747;51.998;4.466;2023-02-18T03:28:03;42.38;;;10.77;;
68757;SDS011;55747;51.998;4.466;2023-02-18T03:33:11;42.28;;;11.50;;
68757;SDS011;55747;51.998;4.466;2023-02-18T03:35:41;46.78;;;12.63;;
68757;SDS011;55747;51.998;4.466;2023-02-18T03:38:12;45.55;;;11.93;;
68757;SDS011;55747;51.998;4.466;2023-02-18T03:40:43;40.78;;;10.55;;
68757;SDS011;55747;51.998;4.466;2023-02-18T03:43:08;41.13;;;11.23;;
68757;SDS011;55747;51.998;4.466;2023-02-18T03:45:34;36.33;;;10.68;;
68757;SDS011;55747;51.998;4.466;2023-02-18T03:47:59;36.17;;;10.88;;
68757;SDS011;55747;51.998;4.466;2023-02-18T03:50:25;38.03;;;10.43;;
68757;SDS011;55747;51.998;4.466;2023-02-18T03:52:50;36.67;;;10.38;;
68757;SDS011;55747;51.998;4.466;2023-02-18T03:55:15;31.20;;;10.40;;
68757;SDS011;55747;51.998;4.466;2023-02-18T03:57:41;30.63;;;9.98;;
68757;SDS011;55747;51.998;4.466;2023-02-18T04:00:07;35.45;;;10.77;;
68757;SDS011;55747;51.998;4.466;2023-02-18T04:02:33;33.38;;;10.57;;
68757;SDS011;55747;51.998;4.466;2023-02-18T04:04:58;31.33;;;11.07;;
68757;SDS011;55747;51.998;4.466;2023-02-18T04:07:24;35.00;;;12.38;;
68757;SDS011;55747;51.998;4.466;2023-02-18T04:09:49;36.92;;;12.63;;
68757;SDS011;55747;51.998;4.466;2023-02-18T04:12:17;41.42;;;13.68;;
68757;SDS011;55747;51.998;4.466;2023-02-18T04:14:43;48.67;;;13.35;;
68757;SDS011;55747;51.998;4.466;2023-02-18T04:17:11;52.17;;;15.27;;
68757;SDS011;55747;51.998;4.466;2023-02-18T04:19:37;55.38;;;16.63;;
68757;SDS011;55747;51.998;4.466;2023-02-18T04:22:02;57.90;;;15.98;;
68757;SDS011;55747;51.998;4.466;2023-02-18T04:24:28;60.33;;;16.60;;
68757;SDS011;55747;51.998;4.466;2023-02-18T04:26:53;59.40;;;18.05;;
68757;SDS011;55747;51.998;4.466;2023-02-18T04:29:18;60.08;;;17.50;;
68757;SDS011;55747;51.998;4.466;2023-02-18T04:31:44;60.05;;;16.80;;
68757;SDS011;55747;51.998;4.466;2023-02-18T04:34:09;65.95;;;18.00;;
68757;SDS011;55747;51.998;4.466;2023-02-18T04:36:34;65.85;;;18.45;;
68757;SDS011;55747;51.998;4.466;2023-02-18T04:39:00;57.60;;;17.45;;
68757;SDS011;55747;51.998;4.466;2023-02-18T04:41:25;56.58;;;17.45;;
68757;SDS011;55747;51.998;4.466;2023-02-18T04:43:51;55.28;;;18.23;;
68757;SDS011;55747;51.998;4.466;2023-02-18T04:46:16;55.85;;;17.05;;
68757;SDS011;55747;51.998;4.466;2023-02-18T04:48:41;50.42;;;16.85;;
68757;SDS011;55747;51.998;4.466;2023-02-18T04:51:09;59.55;;;17.08;;
68757;SDS011;55747;51.998;4.466;2023-02-18T04:53:35;50.67;;;15.93;;
68757;SDS011;55747;51.998;4.466;2023-02-18T04:56:00;51.53;;;16.80;;
68757;SDS011;55747;51.998;4.466;2023-02-18T04:58:25;54.53;;;17.00;;
68757;SDS011;55747;51.998;4.466;2023-02-18T05:00:51;50.20;;;16.70;;
68757;SDS011;55747;51.998;4.466;2023-02-18T05:03:17;50.15;;;16.35;;
68757;SDS011;55747;51.998;4.466;2023-02-18T05:05:43;42.97;;;15.25;;
68757;SDS011;55747;51.998;4.466;2023-02-18T05:08:09;41.50;;;14.98;;
68757;SDS011;55747;51.998;4.466;2023-02-18T05:10:36;37.80;;;15.32;;
68757;SDS011;55747;51.998;4.466;2023-02-18T05:13:04;39.05;;;14.50;;
68757;SDS011;55747;51.998;4.466;2023-02-18T05:15:30;38.45;;;14.30;;
68757;SDS011;55747;51.998;4.466;2023-02-18T05:17:55;40.20;;;14.23;;
68757;SDS011;55747;51.998;4.466;2023-02-18T05:20:20;38.05;;;14.88;;
68757;SDS011;55747;51.998;4.466;2023-02-18T05:22:46;36.88;;;13.38;;
68757;SDS011;55747;51.998;4.466;2023-02-18T05:25:11;40.22;;;14.32;;
68757;SDS011;55747;51.998;4.466;2023-02-18T05:27:36;39.30;;;14.27;;
68757;SDS011;55747;51.998;4.466;2023-02-18T05:30:02;42.50;;;14.27;;
68757;SDS011;55747;51.998;4.466;2023-02-18T05:32:28;43.05;;;14.35;;
68757;SDS011;55747;51.998;4.466;2023-02-18T05:34:53;41.10;;;14.00;;
68757;SDS011;55747;51.998;4.466;2023-02-18T05:37:18;37.25;;;13.38;;
68757;SDS011;55747;51.998;4.466;2023-02-18T05:39:44;37.60;;;14.02;;
68757;SDS011;55747;51.998;4.466;2023-02-18T05:42:10;35.63;;;13.50;;
68757;SDS011;55747;51.998;4.466;2023-02-18T05:44:35;43.22;;;13.73;;
68757;SDS011;55747;51.998;4.466;2023-02-18T05:47:08;47.92;;;15.32;;
68757;SDS011;55747;51.998;4.466;2023-02-18T05:49:35;48.30;;;15.05;;
68757;SDS011;55747;51.998;4.466;2023-02-18T05:52:02;43.78;;;14.50;;
68757;SDS011;55747;51.998;4.466;2023-02-18T05:54:28;42.03;;;14.70;;
68757;SDS011;55747;51.998;4.466;2023-02-18T05:56:54;54.85;;;15.45;;
68757;SDS011;55747;51.998;4.466;2023-02-18T05:59:20;50.33;;;15.70;;
68757;SDS011;55747;51.998;4.466;2023-02-18T06:01:46;50.33;;;15.82;;
68757;SDS011;55747;51.998;4.466;2023-02-18T06:04:12;57.97;;;16.02;;
68757;SDS011;55747;51.998;4.466;2023-02-18T06:06:37;51.25;;;15.18;;
68757;SDS011;55747;51.998;4.466;2023-02-18T06:09:03;43.80;;;14.52;;
68757;SDS011;55747;51.998;4.466;2023-02-18T06:11:29;52.38;;;14.88;;
68757;SDS011;55747;51.998;4.466;2023-02-18T06:13:55;44.88;;;15.18;;
68757;SDS011;55747;51.998;4.466;2023-02-18T06:16:21;47.47;;;13.63;;
68757;SDS011;55747;51.998;4.466;2023-02-18T06:18:46;49.55;;;15.40;;
68757;SDS011;55747;51.998;4.466;2023-02-18T06:21:11;48.30;;;14.82;;
68757;SDS011;55747;51.998;4.466;2023-02-18T06:23:37;46.38;;;13.70;;
68757;SDS011;55747;51.998;4.466;2023-02-18T06:26:02;43.15;;;12.27;;
68757;SDS011;55747;51.998;4.466;2023-02-18T06:28:30;38.50;;;11.18;;
68757;SDS011;55747;51.998;4.466;2023-02-18T06:30:55;39.42;;;11.80;;
68757;SDS011;55747;51.998;4.466;2023-02-18T06:33:20;38.65;;;11.82;;
68757;SDS011;55747;51.998;4.466;2023-02-18T06:35:56;39.90;;;10.30;;
68757;SDS011;55747;51.998;4.466;2023-02-18T06:38:23;38.92;;;11.48;;
68757;SDS011;55747;51.998;4.466;2023-02-18T06:40:49;34.08;;;9.32;;
68757;SDS011;55747;51.998;4.466;2023-02-18T06:43:15;26.45;;;7.43;;
68757;SDS011;55747;51.998;4.466;2023-02-18T06:45:43;28.60;;;7.22;;
68757;SDS011;55747;51.998;4.466;2023-02-18T06:48:09;31.60;;;6.70;;
68757;SDS011;55747;51.998;4.466;2023-02-18T06:50:34;27.50;;;6.40;;
68757;SDS011;55747;51.998;4.466;2023-02-18T06:53:00;32.38;;;6.38;;
68757;SDS011;55747;51.998;4.466;2023-02-18T06:55:25;36.55;;;6.50;;
68757;SDS011;55747;51.998;4.466;2023-02-18T06:57:50;35.67;;;6.15;;
68757;SDS011;55747;51.998;4.466;2023-02-18T07:00:16;29.42;;;5.65;;
68757;SDS011;55747;51.998;4.466;2023-02-18T07:02:42;29.40;;;5.13;;
68757;SDS011;55747;51.998;4.466;2023-02-18T07:05:07;34.78;;;4.93;;
68757;SDS011;55747;51.998;4.466;2023-02-18T07:07:33;31.75;;;4.10;;
68757;SDS011;55747;51.998;4.466;2023-02-18T07:09:58;37.72;;;4.80;;
68757;SDS011;55747;51.998;4.466;2023-02-18T07:12:24;35.92;;;4.65;;
68757;SDS011;55747;51.998;4.466;2023-02-18T07:14:49;28.70;;;4.53;;
68757;SDS011;55747;51.998;4.466;2023-02-18T07:17:15;27.95;;;4.03;;
68757;SDS011;55747;51.998;4.466;2023-02-18T07:19:43;20.88;;;3.15;;
68757;SDS011;55747;51.998;4.466;2023-02-18T07:22:09;22.00;;;3.45;;
68757;SDS011;55747;51.998;4.466;2023-02-18T07:24:34;25.05;;;3.53;;
68757;SDS011;55747;51.998;4.466;2023-02-18T07:26:59;27.27;;;4.00;;
68757;SDS011;55747;51.998;4.466;2023-02-18T07:29:25;23.98;;;3.60;;
68757;SDS011;55747;51.998;4.466;2023-02-18T07:31:50;21.67;;;3.25;;
68757;SDS011;55747;51.998;4.466;2023-02-18T07:34:16;27.85;;;3.88;;
68757;SDS011;55747;51.998;4.466;2023-02-18T07:36:41;21.10;;;3.78;;
68757;SDS011;55747;51.998;4.466;2023-02-18T07:39:12;27.55;;;3.70;;
68757;SDS011;55747;51.998;4.466;2023-02-18T07:41:40;26.58;;;3.95;;
68757;SDS011;55747;51.998;4.466;2023-02-18T07:44:08;25.55;;;3.35;;
68757;SDS011;55747;51.998;4.466;2023-02-18T07:46:44;19.98;;;3.30;;
68757;SDS011;55747;51.998;4.466;2023-02-18T07:49:30;24.65;;;3.38;;
68757;SDS011;55747;51.998;4.466;2023-02-18T07:51:56;21.73;;;2.95;;
68757;SDS011;55747;51.998;4.466;2023-02-18T07:54:26;29.10;;;4.37;;
68757;SDS011;55747;51.998;4.466;2023-02-18T07:57:05;22.45;;;3.55;;
68757;SDS011;55747;51.998;4.466;2023-02-18T08:02:49;22.75;;;3.53;;
68757;SDS011;55747;51.998;4.466;2023-02-18T08:08:04;18.42;;;2.95;;
68757;SDS011;55747;51.998;4.466;2023-02-18T08:10:32;25.95;;;3.00;;
68757;SDS011;55747;51.998;4.466;2023-02-18T08:13:16;18.73;;;3.72;;
68757;SDS011;55747;51.998;4.466;2023-02-18T08:18:36;27.63;;;3.78;;
68757;SDS011;55747;51.998;4.466;2023-02-18T08:21:13;23.35;;;3.67;;
68757;SDS011;55747;51.998;4.466;2023-02-18T08:23:41;20.98;;;3.58;;
68757;SDS011;55747;51.998;4.466;2023-02-18T08:26:16;24.08;;;3.60;;
68757;SDS011;55747;51.998;4.466;2023-02-18T08:29:06;21.77;;;3.30;;
68757;SDS011;55747;51.998;4.466;2023-02-18T08:32:07;29.35;;;3.30;;
68757;SDS011;55747;51.998;4.466;2023-02-18T08:34:32;24.90;;;3.88;;
68757;SDS011;55747;51.998;4.466;2023-02-18T08:37:35;21.05;;;3.33;;
68757;SDS011;55747;51.998;4.466;2023-02-18T08:40:28;15.50;;;3.47;;
68757;SDS011;55747;51.998;4.466;2023-02-18T08:47:54;16.80;;;3.22;;
68757;SDS011;55747;51.998;4.466;2023-02-18T08:54:17;22.38;;;3.15;;
68757;SDS011;55747;51.998;4.466;2023-02-18T08:57:23;17.92;;;3.00;;
68757;SDS011;55747;51.998;4.466;2023-02-18T09:00:16;20.63;;;2.97;;
68757;SDS011;55747;51.998;4.466;2023-02-18T09:06:20;19.23;;;3.08;;
68757;SDS011;55747;51.998;4.466;2023-02-18T09:09:26;22.98;;;3.63;;
68757;SDS011;55747;51.998;4.466;2023-02-18T09:35:51;27.80;;;3.95;;
68757;SDS011;55747;51.998;4.466;2023-02-18T09:38:26;24.33;;;3.58;;
68757;SDS011;55747;51.998;4.466;2023-02-18T09:47:21;26.10;;;3.58;;
68757;SDS011;55747;51.998;4.466;2023-02-18T09:53:03;32.55;;;4.38;;
68757;SDS011;55747;51.998;4.466;2023-02-18T10:01:50;22.00;;;3.40;;
68757;SDS011;55747;51.998;4.466;2023-02-18T10:07:29;22.83;;;3.72;;
68757;SDS011;55747;51.998;4.466;2023-02-18T10:10:20;21.23;;;2.97;;
68757;SDS011;55747;51.998;4.466;2023-02-18T10:13:08;27.70;;;3.55;;
68757;SDS011;55747;51.998;4.466;2023-02-18T10:15:42;25.00;;;3.42;;
68757;SDS011;55747;51.998;4.466;2023-02-18T10:18:55;27.50;;;3.60;;
68757;SDS011;55747;51.998;4.466;2023-02-18T10:21:40;24.30;;;3.20;;
68757;SDS011;55747;51.998;4.466;2023-02-18T10:52:12;19.48;;;2.75;;
68757;SDS011;55747;51.998;4.466;2023-02-18T10:55:37;19.02;;;2.80;;
68757;SDS011;55747;51.998;4.466;2023-02-18T11:02:16;16.95;;;3.08;;
68757;SDS011;55747;51.998;4.466;2023-02-18T11:25:52;22.35;;;3.08;;
68757;SDS011;55747;51.998;4.466;2023-02-18T11:56:40;16.40;;;2.53;;
68757;SDS011;55747;51.998;4.466;2023-02-18T12:20:25;15.73;;;2.33;;
68757;SDS011;55747;51.998;4.466;2023-02-18T14:33:14;23.95;;;3.15;;
68757;SDS011;55747;51.998;4.466;2023-02-18T14:49:56;14.25;;;2.70;;
68757;SDS011;55747;51.998;4.466;2023-02-18T14:52:52;16.20;;;2.85;;
68757;SDS011;55747;51.998;4.466;2023-02-18T14:56:14;21.10;;;3.25;;
68757;SDS011;55747;51.998;4.466;2023-02-18T14:59:02;17.65;;;2.72;;
68757;SDS011;55747;51.998;4.466;2023-02-18T15:01:54;22.35;;;3.45;;
68757;SDS011;55747;51.998;4.466;2023-02-18T15:04:37;26.35;;;3.28;;
68757;SDS011;55747;51.998;4.466;2023-02-18T15:07:13;20.80;;;3.00;;
68757;SDS011;55747;51.998;4.466;2023-02-18T15:12:49;15.45;;;2.60;;
68757;SDS011;55747;51.998;4.466;2023-02-18T15:18:35;25.67;;;3.35;;
68757;SDS011;55747;51.998;4.466;2023-02-18T15:21:32;23.33;;;3.33;;
68757;SDS011;55747;51.998;4.466;2023-02-18T15:26:40;23.67;;;3.35;;
68757;SDS011;55747;51.998;4.466;2023-02-18T15:29:31;19.67;;;3.45;;
68757;SDS011;55747;51.998;4.466;2023-02-18T15:35:23;29.67;;;3.72;;
68757;SDS011;55747;51.998;4.466;2023-02-18T15:38:12;27.33;;;3.75;;
68757;SDS011;55747;51.998;4.466;2023-02-18T15:41:13;18.30;;;3.35;;
68757;SDS011;55747;51.998;4.466;2023-02-18T15:47:01;24.60;;;4.35;;
68757;SDS011;55747;51.998;4.466;2023-02-18T15:49:50;27.73;;;4.20;;
68757;SDS011;55747;51.998;4.466;2023-02-18T16:01:40;27.15;;;3.40;;
68757;SDS011;55747;51.998;4.466;2023-02-18T16:04:21;23.13;;;3.90;;
68757;SDS011;55747;51.998;4.466;2023-02-18T16:06:55;29.60;;;4.57;;
68757;SDS011;55747;51.998;4.466;2023-02-18T16:09:43;27.85;;;3.75;;
68757;SDS011;55747;51.998;4.466;2023-02-18T16:32:38;32.38;;;4.05;;
68757;SDS011;55747;51.998;4.466;2023-02-18T16:38:27;28.38;;;4.70;;
68757;SDS011;55747;51.998;4.466;2023-02-18T16:47:25;31.13;;;5.43;;
68757;SDS011;55747;51.998;4.466;2023-02-18T16:50:43;29.65;;;5.05;;
68757;SDS011;55747;51.998;4.466;2023-02-18T16:53:23;36.70;;;5.22;;
68757;SDS011;55747;51.998;4.466;2023-02-18T17:07:43;36.78;;;5.75;;
68757;SDS011;55747;51.998;4.466;2023-02-18T17:10:07;41.25;;;6.88;;
68757;SDS011;55747;51.998;4.466;2023-02-18T17:32:01;28.50;;;5.13;;
68757;SDS011;55747;51.998;4.466;2023-02-18T17:35:04;28.98;;;5.47;;
68757;SDS011;55747;51.998;4.466;2023-02-18T17:37:59;44.53;;;6.03;;
68757;SDS011;55747;51.998;4.466;2023-02-18T17:44:29;32.67;;;6.18;;
68757;SDS011;55747;51.998;4.466;2023-02-18T17:53:24;36.78;;;6.45;;
68757;SDS011;55747;51.998;4.466;2023-02-18T17:59:01;40.13;;;7.38;;
68757;SDS011;55747;51.998;4.466;2023-02-18T19:51:23;46.40;;;11.68;;
68757;SDS011;55747;51.998;4.466;2023-02-18T20:05:27;44.53;;;9.50;;
68757;SDS011;55747;51.998;4.466;2023-02-18T20:56:59;69.18;;;13.88;;
68757;SDS011;55747;51.998;4.466;2023-02-18T22:48:33;37.25;;;8.18;;
68757;SDS011;55747;51.998;4.466;2023-02-18T23:19:00;35.78;;;7.38;;
68757;SDS011;55747;51.998;4.466;2023-02-18T23:44:32;27.85;;;5.95;;
